createdAt,value
2023-03-07T00:00:32.649Z,99243.69
2023-03-07T00:08:52.690Z,99267.25
2023-03-07T00:12:54.632Z,99271.69
2023-03-07T00:16:56.554Z,99270.81
2023-03-07T00:21:00.130Z,99269.75
2023-03-07T00:25:02.225Z,99261.31
2023-03-07T00:29:04.146Z,99256.41
2023-03-07T00:33:06.145Z,99258.34
2023-03-07T00:37:08.234Z,99251.50
2023-03-07T00:41:13.848Z,99251.63
2023-03-07T00:45:15.914Z,99255.97
2023-03-07T00:49:18.023Z,99261.72
2023-03-07T00:53:20.693Z,99269.16
2023-03-07T00:57:22.698Z,99269.28
2023-03-07T01:01:25.810Z,99258.25
2023-03-07T01:05:28.437Z,99282.47
2023-03-07T01:09:30.423Z,99283.13
2023-03-07T01:13:33.807Z,99292.34
2023-03-07T01:17:35.805Z,99293.72
2023-03-07T01:21:40.535Z,99285.16
2023-03-07T01:25:43.724Z,99288.78
2023-03-07T01:29:46.239Z,99279.50
2023-03-07T01:33:50.664Z,99278.56
2023-03-07T01:37:54.261Z,99277.19
2023-03-07T01:41:56.333Z,99282.16
2023-03-07T01:46:17.482Z,99274.84
2023-03-07T01:50:22.894Z,99271.66
2023-03-07T01:54:26.279Z,99270.41
2023-03-07T01:58:29.753Z,99271.66
2023-03-07T02:02:32.143Z,99253.94
2023-03-07T02:06:37.036Z,99258.50
2023-03-07T02:10:41.536Z,99256.22
2023-03-07T02:14:45.473Z,99260.94
2023-03-07T02:18:49.967Z,99254.41
2023-03-07T02:22:52.271Z,99247.97
2023-03-07T02:26:57.684Z,99240.63
2023-03-07T02:31:06.153Z,99244.31
2023-03-07T02:35:17.071Z,99237.81
2023-03-07T02:39:24.053Z,99237.19
2023-03-07T02:43:28.041Z,99219.53
2023-03-07T02:47:30.356Z,99218.03
2023-03-07T02:51:33.646Z,99212.34
2023-03-07T02:55:35.467Z,99207.47
2023-03-07T02:59:41.230Z,99204.28
2023-03-07T03:03:44.646Z,99201.06
2023-03-07T03:07:49.270Z,99191.94
2023-03-07T03:11:51.164Z,99195.59
2023-03-07T03:15:57.176Z,99198.44
2023-03-07T03:19:59.372Z,99197.81
2023-03-07T03:24:06.224Z,99183.53
2023-03-07T03:28:08.553Z,99188.00
2023-03-07T03:32:11.434Z,99184.78
2023-03-07T03:36:16.548Z,99183.22
2023-03-07T03:40:21.319Z,99175.50
2023-03-07T03:44:23.554Z,99172.28
2023-03-07T03:48:26.746Z,99176.69
2023-03-07T03:52:30.037Z,99176.16
2023-03-07T03:56:32.092Z,99181.34
2023-03-07T04:00:34.144Z,99179.84
2023-03-07T04:04:36.494Z,99184.22
2023-03-07T04:08:40.226Z,99191.28
2023-03-07T04:12:43.071Z,99186.19
2023-03-07T04:16:46.727Z,99192.25
2023-03-07T04:20:51.437Z,99189.88
2023-03-07T04:24:53.445Z,99181.44
2023-03-07T04:28:55.701Z,99184.91
2023-03-07T04:33:10.485Z,99185.03
2023-03-07T04:37:12.537Z,99179.94
2023-03-07T04:41:18.451Z,99167.19
2023-03-07T04:45:21.921Z,99178.38
2023-03-07T04:49:23.919Z,99193.25
2023-03-07T04:53:26.397Z,99197.34
2023-03-07T04:57:28.389Z,99203.38
2023-03-07T05:01:30.478Z,99215.22
2023-03-07T05:05:35.556Z,99209.19
2023-03-07T05:09:38.809Z,99209.81
2023-03-07T05:13:41.098Z,99210.75
2023-03-07T05:17:43.308Z,99206.59
2023-03-07T05:21:47.583Z,99222.03
2023-03-07T05:25:50.452Z,99223.91
2023-03-07T05:29:52.581Z,99226.59
2023-03-07T05:33:54.664Z,99224.81
2023-03-07T05:37:56.671Z,99228.09
2023-03-07T05:41:58.747Z,99231.72
2023-03-07T05:46:01.911Z,99242.59
2023-03-07T05:50:05.179Z,99252.41
2023-03-07T05:54:07.340Z,99253.38
2023-03-07T05:58:10.568Z,99249.94
2023-03-07T06:02:12.845Z,99250.75
2023-03-07T06:06:15.697Z,99246.84
2023-03-07T06:10:18.628Z,99251.16
2023-03-07T06:14:21.388Z,99250.16
2023-03-07T06:18:24.887Z,99256.75
2023-03-07T06:22:27.482Z,99247.91
2023-03-07T06:26:29.834Z,99230.16
2023-03-07T06:30:31.952Z,99233.94
2023-03-07T06:34:34.417Z,99226.41
2023-03-07T06:38:36.898Z,99230.34
2023-03-07T06:42:39.568Z,99225.72
2023-03-07T06:46:44.145Z,99227.97
2023-03-07T06:50:49.541Z,99222.91
2023-03-07T06:54:51.927Z,99216.69
2023-03-07T06:58:53.914Z,99212.28
2023-03-07T07:02:56.643Z,99207.84
2023-03-07T07:06:59.095Z,99197.22
2023-03-07T07:11:02.280Z,99180.41
2023-03-07T07:15:06.033Z,99168.66
2023-03-07T07:19:09.795Z,99167.59
2023-03-07T07:23:11.926Z,99164.97
2023-03-07T07:27:13.931Z,99156.72
2023-03-07T07:31:16.351Z,99153.25
2023-03-07T07:35:18.575Z,99143.50
2023-03-07T07:39:21.804Z,99139.28
2023-03-07T07:43:24.277Z,99132.13
2023-03-07T07:47:50.082Z,99131.00
2023-03-07T07:51:52.494Z,99132.78
2023-03-07T07:55:54.690Z,99133.25
2023-03-07T07:59:56.695Z,99125.69
2023-03-07T08:03:58.832Z,99120.97
2023-03-07T08:08:00.908Z,99129.81
2023-03-07T08:12:03.098Z,99123.72
2023-03-07T08:16:13.317Z,99130.78
2023-03-07T08:20:15.553Z,99125.28
2023-03-07T08:24:17.585Z,99122.56
2023-03-07T08:28:19.624Z,99110.94
2023-03-07T08:32:21.661Z,99111.91
2023-03-07T08:36:23.671Z,99115.13
2023-03-07T08:40:26.507Z,99111.78
2023-03-07T08:44:28.588Z,99102.81
2023-03-07T08:48:31.155Z,99103.56
2023-03-07T08:52:33.188Z,99103.31
2023-03-07T08:56:36.268Z,99114.44
2023-03-07T09:00:40.049Z,99132.53
2023-03-07T09:04:43.471Z,99117.06
2023-03-07T09:08:46.238Z,99123.28
2023-03-07T09:12:49.867Z,99132.72
2023-03-07T09:16:51.868Z,99134.56
2023-03-07T09:20:53.795Z,99129.53
2023-03-07T09:24:55.821Z,99135.38
2023-03-07T09:28:57.804Z,99138.50
2023-03-07T09:32:59.995Z,99136.94
2023-03-07T09:37:02.036Z,99132.88
2023-03-07T09:41:22.747Z,99133.81
2023-03-07T09:45:30.898Z,99123.16
2023-03-07T09:49:46.337Z,99129.19
2023-03-07T09:53:52.182Z,99114.56
2023-03-07T09:57:56.172Z,99105.19
2023-03-07T10:02:12.911Z,99108.91
2023-03-07T10:06:25.246Z,99096.78
2023-03-07T10:10:38.751Z,99086.38
2023-03-07T10:15:04.573Z,99087.25
2023-03-07T10:19:23.895Z,99071.34
2023-03-07T10:23:34.822Z,99072.59
2023-03-07T10:27:38.314Z,99058.28
2023-03-07T10:31:45.268Z,99056.84
2023-03-07T10:35:55.032Z,99044.06
2023-03-07T10:39:57.356Z,99050.97
2023-03-07T10:43:59.404Z,99032.38
2023-03-07T10:48:08.398Z,99035.19
2023-03-07T10:52:35.807Z,99012.66
2023-03-07T10:56:37.850Z,98995.84
2023-03-07T11:00:40.519Z,98979.00
2023-03-07T11:04:45.938Z,98980.28
2023-03-07T11:08:47.892Z,98964.63
2023-03-07T11:12:49.986Z,98956.72
2023-03-07T11:16:56.792Z,98965.56
2023-03-07T11:21:00.871Z,98971.63
2023-03-07T11:25:08.820Z,98962.53
2023-03-07T11:29:13.193Z,98941.78
2023-03-07T11:33:25.025Z,98943.66
2023-03-07T11:37:38.208Z,98942.75
2023-03-07T11:41:44.719Z,98923.63
2023-03-07T11:46:01.932Z,98916.41
2023-03-07T11:50:24.028Z,98926.41
2023-03-07T11:54:38.191Z,98922.31
2023-03-07T11:59:01.912Z,98913.88
2023-03-07T12:03:20.478Z,98894.16
2023-03-07T12:08:00.102Z,98903.94
2023-03-07T12:12:20.943Z,98897.78
2023-03-07T12:16:47.668Z,98897.97
2023-03-07T12:20:55.652Z,98914.16
2023-03-07T12:25:04.485Z,98892.59
2023-03-07T12:29:16.879Z,98885.31
2023-03-07T12:33:38.062Z,98889.00
2023-03-07T12:37:45.982Z,98888.47
2023-03-07T12:42:17.386Z,98873.00
2023-03-07T12:46:37.376Z,98867.44
2023-03-07T12:51:00.131Z,98859.16
2023-03-07T12:55:36.440Z,98860.75
2023-03-07T12:59:42.471Z,98846.69
2023-03-07T13:04:22.890Z,98848.31
2023-03-07T13:08:25.532Z,98851.16
2023-03-07T13:12:33.662Z,98842.56
2023-03-07T13:16:44.166Z,98827.81
2023-03-07T13:21:07.267Z,98833.59
2023-03-07T13:25:26.609Z,98834.41
2023-03-07T13:30:06.573Z,98841.25
2023-03-07T13:34:46.794Z,98823.53
2023-03-07T13:38:49.051Z,98820.16
2023-03-07T13:42:52.063Z,98813.38
2023-03-07T13:46:55.864Z,98812.78
2023-03-07T13:51:00.940Z,98815.34
2023-03-07T13:55:14.556Z,98820.28
2023-03-07T13:59:24.530Z,98812.31
2023-03-07T14:03:51.732Z,98810.72
2023-03-07T14:07:54.012Z,98771.44
2023-03-07T14:12:14.965Z,98786.66
2023-03-07T14:16:55.992Z,98768.25
2023-03-07T14:21:03.831Z,98764.63
2023-03-07T14:25:16.110Z,98754.22
2023-03-07T14:29:22.348Z,98750.78
2023-03-07T14:33:33.049Z,98739.97
2023-03-07T14:37:35.929Z,98728.66
2023-03-07T14:41:52.647Z,98737.94
2023-03-07T14:46:26.919Z,98739.25
2023-03-07T14:50:31.368Z,98723.31
2023-03-07T14:54:37.297Z,98721.97
2023-03-07T14:58:58.210Z,98719.22
2023-03-07T15:03:10.058Z,98717.03
2023-03-07T15:07:21.405Z,98716.31
2023-03-07T15:11:33.351Z,98706.94
2023-03-07T15:15:42.413Z,98712.03
2023-03-07T15:19:50.040Z,98708.19
2023-03-07T15:23:55.145Z,98702.88
2023-03-07T15:28:16.987Z,98708.84
2023-03-07T15:32:45.587Z,98699.63
2023-03-07T15:36:47.721Z,98700.66
2023-03-07T15:40:50.067Z,98690.84
2023-03-07T15:44:57.529Z,98684.50
2023-03-07T15:48:59.641Z,98683.03
2023-03-07T15:53:10.173Z,98684.41
2023-03-07T15:57:18.925Z,98679.63
2023-03-07T16:01:24.153Z,98676.00
2023-03-07T16:05:29.134Z,98677.88
2023-03-07T16:09:31.185Z,98670.91
2023-03-07T16:13:40.223Z,98665.09
2023-03-07T16:17:42.844Z,98660.25
2023-03-07T16:21:45.306Z,98654.31
2023-03-07T16:25:47.566Z,98656.38
2023-03-07T16:29:50.363Z,98645.44
2023-03-07T16:33:52.331Z,98648.66
2023-03-07T16:37:55.377Z,98647.47
2023-03-07T16:41:57.605Z,98650.63
2023-03-07T16:46:05.471Z,98645.44
2023-03-07T16:50:18.671Z,98636.09
2023-03-07T16:54:20.694Z,98634.19
2023-03-07T16:58:27.572Z,98634.19
2023-03-07T17:02:29.758Z,98633.88
2023-03-07T17:06:39.169Z,98634.34
2023-03-07T17:10:44.517Z,98635.66
2023-03-07T17:14:46.859Z,98642.78
2023-03-07T17:18:48.831Z,98633.97
2023-03-07T17:22:52.033Z,98628.69
2023-03-07T17:26:55.003Z,98625.44
2023-03-07T17:30:57.034Z,98622.66
2023-03-07T17:34:59.127Z,98617.66
2023-03-07T17:39:01.167Z,98619.16
2023-03-07T17:43:04.304Z,98610.13
2023-03-07T17:47:06.128Z,98616.19
2023-03-07T17:51:11.438Z,98615.22
2023-03-07T17:55:15.147Z,98614.66
2023-03-07T17:59:17.103Z,98612.16
2023-03-07T18:03:19.160Z,98600.22
2023-03-07T18:07:21.844Z,98607.69
2023-03-07T18:11:23.896Z,98600.13
2023-03-07T18:15:27.710Z,98599.16
2023-03-07T18:19:30.210Z,98593.41
2023-03-07T18:23:34.088Z,98590.47
2023-03-07T18:27:36.529Z,98588.31
2023-03-07T18:31:39.193Z,98585.75
2023-03-07T18:35:43.456Z,98591.63
2023-03-07T18:39:45.692Z,98582.09
2023-03-07T18:43:48.133Z,98579.16
2023-03-07T18:47:50.732Z,98591.25
2023-03-07T18:51:57.967Z,98592.22
2023-03-07T18:56:05.914Z,98585.66
2023-03-07T19:00:11.391Z,98590.28
2023-03-07T19:04:13.417Z,98587.00
2023-03-07T19:08:16.712Z,98596.28
2023-03-07T19:12:18.251Z,98590.94
2023-03-07T19:16:23.622Z,98591.19
2023-03-07T19:20:27.263Z,98584.84
2023-03-07T19:24:29.315Z,98587.22
2023-03-07T19:28:31.380Z,98577.44
2023-03-07T19:32:33.468Z,98580.69
2023-03-07T19:36:36.927Z,98575.50
2023-03-07T19:40:38.926Z,98574.31
2023-03-07T19:44:40.938Z,98577.34
2023-03-07T19:48:46.034Z,98568.09
2023-03-07T19:52:48.005Z,98575.50
2023-03-07T19:56:49.679Z,98571.94
2023-03-07T20:00:51.579Z,98569.13
2023-03-07T20:04:55.474Z,98571.53
2023-03-07T20:08:58.839Z,98567.44
2023-03-07T20:13:00.932Z,98559.44
2023-03-07T20:17:02.949Z,98560.19
2023-03-07T20:21:07.254Z,98541.00
2023-03-07T20:25:09.977Z,98543.00
2023-03-07T20:29:12.096Z,98555.06
2023-03-07T20:33:14.648Z,98545.09
2023-03-07T20:37:16.555Z,98549.03
2023-03-07T20:41:20.993Z,98545.50
2023-03-07T20:45:23.025Z,98544.31
2023-03-07T20:49:24.972Z,98534.31
2023-03-07T20:53:26.995Z,98533.06
2023-03-07T20:57:28.910Z,98529.72
2023-03-07T21:01:33.174Z,98517.00
2023-03-07T21:05:35.714Z,98500.47
2023-03-07T21:09:37.672Z,98479.09
2023-03-07T21:13:41.847Z,98485.56
2023-03-07T21:17:43.882Z,98479.50
2023-03-07T21:21:45.863Z,98476.38
2023-03-07T21:25:47.853Z,98476.38
2023-03-07T21:29:49.761Z,98503.00
2023-03-07T21:33:54.159Z,98494.38
2023-03-07T21:37:56.460Z,98500.19
2023-03-07T21:41:58.476Z,98493.38
2023-03-07T21:46:09.367Z,98500.66
2023-03-07T21:50:11.508Z,98495.75
2023-03-07T21:54:13.530Z,98501.09
2023-03-07T21:58:15.495Z,98502.22
2023-03-07T22:02:17.482Z,98498.88
2023-03-07T22:06:20.119Z,98502.22
2023-03-07T22:10:22.026Z,98499.63
2023-03-07T22:14:24.083Z,98511.19
2023-03-07T22:18:26.571Z,98501.41
2023-03-07T22:22:28.599Z,98517.31
2023-03-07T22:26:31.564Z,98513.78
2023-03-07T22:30:33.538Z,98491.69
2023-03-07T22:34:35.699Z,98477.41
2023-03-07T22:38:37.678Z,98480.75
2023-03-07T22:42:39.777Z,98485.59
2023-03-07T22:46:41.807Z,98496.41
2023-03-07T22:50:43.947Z,98519.22
2023-03-07T22:54:45.962Z,98524.56
2023-03-07T22:58:48.323Z,98540.69
2023-03-07T23:02:50.252Z,98528.31
2023-03-07T23:06:52.174Z,98527.09
2023-03-07T23:11:03.867Z,98533.25
2023-03-07T23:15:06.382Z,98541.81
2023-03-07T23:19:08.723Z,98548.81
2023-03-07T23:23:10.641Z,98554.81
2023-03-07T23:27:12.667Z,98551.72
2023-03-07T23:31:20.505Z,98555.44
2023-03-07T23:35:23.290Z,98558.41
2023-03-07T23:39:25.439Z,98560.16
2023-03-07T23:43:27.535Z,98551.81
2023-03-07T23:47:29.444Z,98554.41
2023-03-07T23:51:31.528Z,98560.69
2023-03-07T23:55:33.662Z,98569.56
2023-03-07T23:59:35.583Z,98571.34
